Time;durP1;ratioP1;P1;durP2;ratioP2;P2;SDS_P1;SDS_P2;PMS_P1;PMS_P2;Temp;Humidity;BMP_temperature;BMP_pressure;BME280_temperature;BME280_humidity;BME280_pressure;Samples;Min_cycle;Max_cycle;Signal;HPM_P1;HPM_P2
2022/05/31 00:01:29;;;;;;;2.15;1.65;;;;;;;;;;5062250;28;20111;-53
2022/05/31 00:03:55;;;;;;;3.83;2.00;;;;;;;;;;5047320;28;20051;-55
2022/05/31 00:06:21;;;;;;;4.80;2.08;;;;;;;;;;5050298;28;20035;-55
2022/05/31 00:08:48;;;;;;;2.97;1.98;;;;;;;;;;5050756;28;20386;-55
2022/05/31 00:11:14;;;;;;;1.98;1.65;;;;;;;;;;5062799;28;20052;-55
2022/05/31 00:13:40;;;;;;;3.88;1.98;;;;;;;;;;5051824;28;20031;-54
2022/05/31 00:16:06;;;;;;;2.67;1.77;;;;;;;;;;5060419;28;20459;-56
2022/05/31 00:18:32;;;;;;;3.03;1.80;;;;;;;;;;5065189;28;20063;-55
2022/05/31 00:20:58;;;;;;;2.10;1.52;;;;;;;;;;5062692;28;20037;-55
2022/05/31 00:23:24;;;;;;;3.97;2.20;;;;;;;;;;5051681;28;20033;-56
2022/05/31 00:25:50;;;;;;;3.15;1.90;;;;;;;;;;5050292;28;20085;-55
2022/05/31 00:28:16;;;;;;;2.45;1.90;;;;;;;;;;5056735;28;20248;-55
2022/05/31 00:30:42;;;;;;;2.88;1.90;;;;;;;;;;5061960;28;20051;-55
2022/05/31 00:33:10;;;;;;;3.40;1.88;;;;;;;;;;5040638;28;20031;-56
2022/05/31 00:35:39;;;;;;;2.63;1.52;;;;;;;;;;5049981;28;20536;-56
2022/05/31 00:38:05;;;;;;;2.40;1.60;;;;;;;;;;5043171;28;20034;-56
2022/05/31 00:40:32;;;;;;;5.30;2.10;;;;;;;;;;5056565;28;20567;-55
2022/05/31 00:42:59;;;;;;;2.40;1.80;;;;;;;;;;5040547;28;20706;-54
2022/05/31 00:45:32;;;;;;;2.50;1.90;;;;;;;;;;5058268;28;20134;-56
2022/05/31 00:47:58;;;;;;;5.18;2.03;;;;;;;;;;5052677;28;20037;-54
2022/05/31 00:50:26;;;;;;;3.13;2.17;;;;;;;;;;5052170;28;20047;-55
2022/05/31 00:52:54;;;;;;;2.60;1.80;;;;;;;;;;5064177;28;20031;-56
2022/05/31 00:55:23;;;;;;;3.08;2.28;;;;;;;;;;5045869;28;20032;-54
2022/05/31 00:57:53;;;;;;;2.00;1.80;;;;;;;;;;5061102;28;20027;-56
2022/05/31 01:00:20;;;;;;;2.58;1.90;;;;;;;;;;5048279;28;20055;-54
2022/05/31 01:02:49;;;;;;;2.20;1.65;;;;;;;;;;5038090;28;20068;-54
2022/05/31 01:05:15;;;;;;;4.13;1.88;;;;;;;;;;5032530;28;20057;-56
2022/05/31 01:07:41;;;;;;;3.35;2.00;;;;;;;;;;5050010;28;20060;-55
2022/05/31 01:10:08;;;;;;;2.70;2.10;;;;;;;;;;5037784;28;20064;-55
2022/05/31 01:12:34;;;;;;;2.78;1.52;;;;;;;;;;5049118;28;20025;-55
2022/05/31 01:15:01;;;;;;;4.40;2.05;;;;;;;;;;5049192;28;20112;-55
2022/05/31 01:17:27;;;;;;;2.97;2.03;;;;;;;;;;5040324;28;20040;-54
2022/05/31 01:19:59;;;;;;;3.58;1.88;;;;;;;;;;5032438;28;20036;-56
2022/05/31 01:22:32;;;;;;;2.42;1.95;;;;;;;;;;5034069;28;20061;-55
2022/05/31 01:25:17;;;;;;;2.72;1.85;;;;;;;;;;5039310;28;20488;-56
2022/05/31 01:27:49;;;;;;;3.25;2.42;;;;;;;;;;5037957;28;20021;-55
2022/05/31 01:30:15;;;;;;;4.00;1.98;;;;;;;;;;5042101;28;20484;-56
2022/05/31 01:33:01;;;;;;;2.80;2.00;;;;;;;;;;5051890;28;20029;-54
2022/05/31 01:35:31;;;;;;;4.28;1.80;;;;;;;;;;5047626;28;20035;-56
2022/05/31 01:38:15;;;;;;;3.65;2.38;;;;;;;;;;5047608;28;20100;-54
2022/05/31 01:41:00;;;;;;;2.30;1.83;;;;;;;;;;5045560;28;20036;-55
2022/05/31 01:43:26;;;;;;;4.22;2.00;;;;;;;;;;5036480;28;20037;-54
2022/05/31 01:45:56;;;;;;;3.10;2.13;;;;;;;;;;5047867;28;20447;-54
2022/05/31 01:48:23;;;;;;;3.05;2.03;;;;;;;;;;5038541;28;20040;-56
2022/05/31 01:50:49;;;;;;;3.58;2.10;;;;;;;;;;5043011;28;20055;-55
2022/05/31 01:53:16;;;;;;;2.53;1.85;;;;;;;;;;5042882;28;20094;-55
2022/05/31 01:55:43;;;;;;;2.53;1.80;;;;;;;;;;5038847;28;20070;-54
2022/05/31 01:58:14;;;;;;;3.05;2.10;;;;;;;;;;5050487;28;20108;-54
2022/05/31 02:00:40;;;;;;;1.77;1.38;;;;;;;;;;5042579;28;20037;-56
2022/05/31 02:03:07;;;;;;;3.88;2.15;;;;;;;;;;5044302;28;20500;-55
2022/05/31 02:05:33;;;;;;;2.92;2.20;;;;;;;;;;5041372;28;20044;-56
2022/05/31 02:08:01;;;;;;;2.92;1.90;;;;;;;;;;5045058;28;20049;-55
2022/05/31 02:10:27;;;;;;;2.25;1.63;;;;;;;;;;5038870;28;20044;-54
2022/05/31 02:12:54;;;;;;;2.53;1.85;;;;;;;;;;5046438;28;20029;-55
2022/05/31 02:15:21;;;;;;;3.30;1.65;;;;;;;;;;5046080;28;20021;-55
2022/05/31 02:17:47;;;;;;;3.92;1.83;;;;;;;;;;5046375;28;20049;-55
2022/05/31 02:20:13;;;;;;;1.95;1.75;;;;;;;;;;5042606;28;20061;-56
2022/05/31 02:22:39;;;;;;;3.90;2.17;;;;;;;;;;5048168;28;20488;-55
2022/05/31 02:25:06;;;;;;;3.88;1.90;;;;;;;;;;5032051;28;20033;-55
2022/05/31 02:27:31;;;;;;;2.47;1.88;;;;;;;;;;5045400;28;20035;-56
2022/05/31 02:29:58;;;;;;;2.85;1.80;;;;;;;;;;5038597;28;20037;-55
2022/05/31 02:32:24;;;;;;;3.83;1.70;;;;;;;;;;5050401;28;20022;-55
2022/05/31 02:34:50;;;;;;;3.65;1.67;;;;;;;;;;5038013;28;20064;-56
2022/05/31 02:37:17;;;;;;;1.73;1.52;;;;;;;;;;5044177;28;20033;-56
2022/05/31 02:39:43;;;;;;;2.30;1.67;;;;;;;;;;5043447;28;20025;-54
2022/05/31 02:42:10;;;;;;;2.00;1.55;;;;;;;;;;5050370;28;20036;-55
2022/05/31 02:44:36;;;;;;;3.88;1.98;;;;;;;;;;5036607;28;20032;-56
2022/05/31 02:47:02;;;;;;;1.90;1.50;;;;;;;;;;5046017;28;20032;-54
2022/05/31 02:49:28;;;;;;;2.90;1.67;;;;;;;;;;5028956;28;20033;-55
2022/05/31 02:51:55;;;;;;;2.28;1.70;;;;;;;;;;5028898;28;20029;-55
2022/05/31 02:54:21;;;;;;;2.60;1.77;;;;;;;;;;5044214;28;20029;-55
2022/05/31 02:56:47;;;;;;;2.10;1.48;;;;;;;;;;5053589;28;20017;-55
2022/05/31 02:59:13;;;;;;;2.40;1.70;;;;;;;;;;5032321;28;20573;-55
2022/05/31 03:01:40;;;;;;;2.40;1.70;;;;;;;;;;5033559;28;20030;-57
2022/05/31 03:04:07;;;;;;;2.80;1.55;;;;;;;;;;5040377;28;20044;-55
2022/05/31 03:06:33;;;;;;;4.85;1.60;;;;;;;;;;5044270;28;20068;-55
2022/05/31 03:08:59;;;;;;;2.92;1.98;;;;;;;;;;5045656;28;20044;-55
2022/05/31 03:11:52;;;;;;;2.28;1.70;;;;;;;;;;5051995;28;20113;-55
2022/05/31 03:14:27;;;;;;;2.08;1.80;;;;;;;;;;5001678;28;20037;-55
2022/05/31 03:16:56;;;;;;;2.72;1.83;;;;;;;;;;5052245;28;20032;-55
2022/05/31 03:19:24;;;;;;;2.72;1.88;;;;;;;;;;5040057;28;20432;-55
2022/05/31 03:21:54;;;;;;;2.75;1.88;;;;;;;;;;5048070;28;20035;-55
2022/05/31 03:24:23;;;;;;;2.75;1.70;;;;;;;;;;5040806;28;20035;-56
2022/05/31 03:26:50;;;;;;;2.28;1.50;;;;;;;;;;5046143;28;20439;-54
2022/05/31 03:29:16;;;;;;;1.98;1.50;;;;;;;;;;5042235;28;20495;-56
2022/05/31 03:31:42;;;;;;;4.20;1.90;;;;;;;;;;5046549;28;20506;-56
2022/05/31 03:34:09;;;;;;;4.32;1.90;;;;;;;;;;5053467;28;20025;-56
2022/05/31 03:36:35;;;;;;;2.10;1.42;;;;;;;;;;5050298;28;20029;-56
2022/05/31 03:39:01;;;;;;;2.80;1.60;;;;;;;;;;5043932;28;20029;-55
2022/05/31 03:41:27;;;;;;;3.30;1.48;;;;;;;;;;5043275;28;20468;-56
2022/05/31 03:43:53;;;;;;;6.13;1.60;;;;;;;;;;5044378;28;20060;-55
2022/05/31 03:46:19;;;;;;;1.98;1.67;;;;;;;;;;5048991;28;20103;-55
2022/05/31 03:48:45;;;;;;;2.17;1.60;;;;;;;;;;5035054;28;20071;-55
2022/05/31 03:51:12;;;;;;;2.72;1.75;;;;;;;;;;5041521;28;20037;-56
2022/05/31 03:53:38;;;;;;;2.08;1.35;;;;;;;;;;5045261;28;20104;-55
2022/05/31 03:56:05;;;;;;;3.58;1.35;;;;;;;;;;5043710;28;20025;-55
2022/05/31 03:58:32;;;;;;;2.38;1.58;;;;;;;;;;5037020;28;20021;-55
2022/05/31 04:00:58;;;;;;;2.92;1.58;;;;;;;;;;5039199;28;20029;-55
2022/05/31 04:03:24;;;;;;;2.08;1.40;;;;;;;;;;5042113;28;20045;-56
2022/05/31 04:05:50;;;;;;;2.00;1.55;;;;;;;;;;5046358;28;20083;-54
2022/05/31 04:08:16;;;;;;;2.60;1.33;;;;;;;;;;5041491;28;20071;-53
2022/05/31 04:10:43;;;;;;;4.55;1.35;;;;;;;;;;5051544;28;20032;-55
2022/05/31 04:13:09;;;;;;;2.58;1.60;;;;;;;;;;5042574;28;20072;-55
2022/05/31 04:15:35;;;;;;;2.22;1.50;;;;;;;;;;5043337;28;20021;-55
2022/05/31 04:18:02;;;;;;;2.25;1.60;;;;;;;;;;5041298;28;20025;-56
2022/05/31 04:20:28;;;;;;;4.65;1.42;;;;;;;;;;5034681;28;20037;-54
2022/05/31 04:25:39;;;;;;;5.20;1.70;;;;;;;;;;5042278;28;20035;-55
2022/05/31 04:28:05;;;;;;;2.17;1.70;;;;;;;;;;5046699;28;20037;-56
2022/05/31 04:30:31;;;;;;;1.90;1.30;;;;;;;;;;5034410;28;20115;-55
2022/05/31 04:32:57;;;;;;;1.73;1.35;;;;;;;;;;5035965;28;20029;-56
2022/05/31 04:35:23;;;;;;;2.33;1.38;;;;;;;;;;5052640;28;20033;-55
2022/05/31 04:37:49;;;;;;;1.80;1.30;;;;;;;;;;5042824;28;20100;-55
2022/05/31 04:40:15;;;;;;;3.10;1.40;;;;;;;;;;5038746;28;20028;-55
2022/05/31 04:42:42;;;;;;;2.63;1.50;;;;;;;;;;5030376;28;20488;-56
2022/05/31 04:45:08;;;;;;;1.88;1.50;;;;;;;;;;5047210;28;20036;-56
2022/05/31 04:47:34;;;;;;;1.52;1.35;;;;;;;;;;5051014;28;20044;-54
2022/05/31 04:50:00;;;;;;;2.42;1.50;;;;;;;;;;5029227;28;20400;-55
2022/05/31 04:52:26;;;;;;;3.35;2.00;;;;;;;;;;5050652;28;20055;-54
2022/05/31 04:54:52;;;;;;;3.08;1.98;;;;;;;;;;5037523;28;20481;-55
2022/05/31 04:57:18;;;;;;;3.60;2.08;;;;;;;;;;5041731;28;20025;-55
2022/05/31 04:59:45;;;;;;;4.75;2.10;;;;;;;;;;5038669;28;20033;-55
2022/05/31 05:02:11;;;;;;;3.22;2.08;;;;;;;;;;5042082;28;20104;-55
2022/05/31 05:04:37;;;;;;;2.42;1.83;;;;;;;;;;5041535;28;20087;-55
2022/05/31 05:07:04;;;;;;;2.55;1.70;;;;;;;;;;5037664;28;20581;-54
2022/05/31 05:09:30;;;;;;;1.70;1.38;;;;;;;;;;5037715;28;20025;-54
2022/05/31 05:11:56;;;;;;;4.97;1.88;;;;;;;;;;5038862;28;20085;-56
2022/05/31 05:14:22;;;;;;;2.47;1.48;;;;;;;;;;5041257;28;20031;-56
2022/05/31 05:16:48;;;;;;;3.72;1.80;;;;;;;;;;5028500;28;20022;-55
2022/05/31 05:19:16;;;;;;;2.35;1.58;;;;;;;;;;5044162;28;20432;-56
2022/05/31 05:21:42;;;;;;;4.60;1.85;;;;;;;;;;5034950;28;20025;-55
2022/05/31 05:24:08;;;;;;;3.35;1.67;;;;;;;;;;5038445;28;20041;-55
2022/05/31 05:26:34;;;;;;;3.95;1.95;;;;;;;;;;5030926;28;20101;-55
2022/05/31 05:31:45;;;;;;;4.38;1.40;;;;;;;;;;5043866;28;20145;-56
2022/05/31 05:34:11;;;;;;;3.60;1.40;;;;;;;;;;5042717;28;20032;-55
2022/05/31 05:36:37;;;;;;;1.58;1.23;;;;;;;;;;5036541;28;20104;-54
2022/05/31 05:39:04;;;;;;;1.58;1.30;;;;;;;;;;5036230;28;20473;-56
2022/05/31 05:41:31;;;;;;;1.67;1.10;;;;;;;;;;5034689;28;20104;-56
2022/05/31 05:43:57;;;;;;;8.00;1.50;;;;;;;;;;5043115;28;20034;-54
2022/05/31 05:46:24;;;;;;;3.05;1.25;;;;;;;;;;5038415;28;20116;-56
2022/05/31 05:48:50;;;;;;;2.80;1.23;;;;;;;;;;5034537;28;20041;-56
2022/05/31 05:51:17;;;;;;;3.20;1.30;;;;;;;;;;5039168;28;20060;-55
2022/05/31 05:53:43;;;;;;;1.85;1.10;;;;;;;;;;5035722;28;20067;-54
2022/05/31 05:56:09;;;;;;;1.80;1.20;;;;;;;;;;5035106;28;20029;-56
2022/05/31 05:58:36;;;;;;;2.00;1.35;;;;;;;;;;5036704;28;20113;-56
2022/05/31 06:01:03;;;;;;;3.15;1.52;;;;;;;;;;5030697;28;20489;-56
2022/05/31 06:03:32;;;;;;;2.58;1.10;;;;;;;;;;5037409;28;20017;-56
2022/05/31 06:05:59;;;;;;;2.28;1.13;;;;;;;;;;5035616;28;20442;-57
2022/05/31 06:08:34;;;;;;;4.32;1.10;;;;;;;;;;5035169;28;20401;-56
2022/05/31 06:11:03;;;;;;;1.48;0.80;;;;;;;;;;5039972;28;20031;-55
2022/05/31 06:13:31;;;;;;;3.92;1.75;;;;;;;;;;5040687;28;20480;-56
2022/05/31 06:15:57;;;;;;;3.17;1.67;;;;;;;;;;5039087;28;20120;-55
2022/05/31 06:18:26;;;;;;;4.50;1.20;;;;;;;;;;5034228;28;20048;-55
2022/05/31 06:20:57;;;;;;;3.17;1.10;;;;;;;;;;5037259;28;20064;-54
2022/05/31 06:23:23;;;;;;;3.63;0.98;;;;;;;;;;5040090;28;20112;-55
2022/05/31 06:25:49;;;;;;;3.80;1.30;;;;;;;;;;5049797;28;20563;-56
2022/05/31 06:28:15;;;;;;;4.97;1.20;;;;;;;;;;5047447;28;20079;-54
2022/05/31 06:30:41;;;;;;;3.45;1.23;;;;;;;;;;5042133;28;20481;-54
2022/05/31 06:33:07;;;;;;;5.82;1.23;;;;;;;;;;5033720;28;20033;-55
2022/05/31 06:35:33;;;;;;;1.55;0.90;;;;;;;;;;5039305;28;20025;-56
2022/05/31 06:37:59;;;;;;;2.67;0.98;;;;;;;;;;5044366;28;20540;-54
2022/05/31 06:40:25;;;;;;;2.10;1.08;;;;;;;;;;5048179;28;20496;-54
2022/05/31 06:42:51;;;;;;;3.80;1.00;;;;;;;;;;5040384;28;20029;-57
2022/05/31 06:45:17;;;;;;;2.50;1.00;;;;;;;;;;5033308;28;20108;-54
2022/05/31 06:47:43;;;;;;;4.32;1.55;;;;;;;;;;5035557;28;20036;-56
2022/05/31 06:50:09;;;;;;;6.20;1.55;;;;;;;;;;5040029;28;20026;-56
2022/05/31 06:58:04;;;;;;;3.28;1.23;;;;;;;;;;5040215;28;20075;-56
2022/05/31 07:00:30;;;;;;;4.57;1.60;;;;;;;;;;5035772;28;20029;-56
2022/05/31 07:02:59;;;;;;;3.22;1.40;;;;;;;;;;5046271;28;20044;-56
2022/05/31 07:05:25;;;;;;;4.53;1.35;;;;;;;;;;5041800;28;20041;-56
2022/05/31 07:07:52;;;;;;;2.70;0.95;;;;;;;;;;5038017;28;20072;-55
2022/05/31 07:10:18;;;;;;;2.40;1.13;;;;;;;;;;5044856;28;20403;-55
2022/05/31 07:12:44;;;;;;;5.22;0.90;;;;;;;;;;5032957;28;20026;-56
2022/05/31 07:15:10;;;;;;;2.67;1.00;;;;;;;;;;5042806;28;20491;-56
2022/05/31 07:17:36;;;;;;;2.83;0.98;;;;;;;;;;5053178;28;20025;-56
2022/05/31 07:20:03;;;;;;;2.42;1.20;;;;;;;;;;5048792;28;20075;-56
2022/05/31 07:22:29;;;;;;;3.15;0.80;;;;;;;;;;5039641;28;20407;-56
2022/05/31 07:24:55;;;;;;;2.90;0.95;;;;;;;;;;5041002;28;20029;-56
2022/05/31 07:27:21;;;;;;;4.30;1.23;;;;;;;;;;5039793;28;20101;-56
2022/05/31 07:29:47;;;;;;;4.65;0.98;;;;;;;;;;5039131;28;20374;-55
2022/05/31 07:32:13;;;;;;;2.65;1.08;;;;;;;;;;5052150;28;20025;-56
2022/05/31 07:34:39;;;;;;;7.15;1.20;;;;;;;;;;5048606;28;20025;-55
2022/05/31 07:37:05;;;;;;;2.05;1.00;;;;;;;;;;5051663;28;20365;-56
2022/05/31 07:39:31;;;;;;;5.75;0.98;;;;;;;;;;5052599;28;20079;-55
2022/05/31 07:41:57;;;;;;;2.42;0.70;;;;;;;;;;5052385;28;20469;-57
2022/05/31 07:44:25;;;;;;;2.30;1.23;;;;;;;;;;5044811;28;20029;-56
2022/05/31 07:46:52;;;;;;;2.88;0.90;;;;;;;;;;5042226;28;20689;-56
2022/05/31 07:49:18;;;;;;;3.33;1.50;;;;;;;;;;5052967;28;20455;-57
2022/05/31 07:51:44;;;;;;;2.75;0.98;;;;;;;;;;5048534;28;20079;-56
2022/05/31 07:54:10;;;;;;;3.55;1.27;;;;;;;;;;5052550;28;20049;-56
2022/05/31 07:56:36;;;;;;;7.70;1.02;;;;;;;;;;5044489;28;20021;-56
2022/05/31 07:59:02;;;;;;;1.67;0.90;;;;;;;;;;5043740;28;20029;-56
2022/05/31 08:01:28;;;;;;;6.40;1.60;;;;;;;;;;5046466;28;20408;-57
2022/05/31 08:03:54;;;;;;;2.20;1.08;;;;;;;;;;5035324;28;20044;-57
2022/05/31 08:06:21;;;;;;;3.20;0.80;;;;;;;;;;5050127;28;20026;-57
2022/05/31 08:08:47;;;;;;;2.97;0.88;;;;;;;;;;5052213;28;20056;-57
2022/05/31 08:11:23;;;;;;;4.97;0.82;;;;;;;;;;5047453;28;20224;-56
2022/05/31 08:13:49;;;;;;;4.40;1.38;;;;;;;;;;5045025;28;20022;-56
2022/05/31 08:16:16;;;;;;;2.03;0.90;;;;;;;;;;5035242;28;20067;-57
2022/05/31 08:18:43;;;;;;;6.25;1.30;;;;;;;;;;5051931;28;20024;-57
2022/05/31 08:21:11;;;;;;;4.25;0.90;;;;;;;;;;5046087;28;20076;-57
2022/05/31 08:23:38;;;;;;;2.72;0.80;;;;;;;;;;5049611;28;20037;-57
2022/05/31 08:26:04;;;;;;;5.32;1.27;;;;;;;;;;5046933;28;20078;-56
2022/05/31 08:28:30;;;;;;;3.42;1.20;;;;;;;;;;5051816;28;20103;-55
2022/05/31 08:30:58;;;;;;;2.00;0.88;;;;;;;;;;5051412;28;20033;-57
2022/05/31 08:33:25;;;;;;;2.92;0.88;;;;;;;;;;5051987;28;20028;-57
2022/05/31 08:35:51;;;;;;;2.63;1.08;;;;;;;;;;5046530;28;20376;-56
2022/05/31 08:38:17;;;;;;;2.90;0.88;;;;;;;;;;5049415;28;20021;-57
2022/05/31 08:40:47;;;;;;;3.58;1.45;;;;;;;;;;5048576;28;20037;-57
2022/05/31 08:43:17;;;;;;;3.38;0.93;;;;;;;;;;5051333;28;20110;-56
2022/05/31 08:45:53;;;;;;;2.70;0.70;;;;;;;;;;5051818;28;20041;-57
2022/05/31 08:48:33;;;;;;;3.65;1.30;;;;;;;;;;5051386;28;20033;-57
2022/05/31 08:56:56;;;;;;;5.05;0.70;;;;;;;;;;5051884;28;20535;-57
2022/05/31 08:56:57;;;;;;;2.70;1.00;;;;;;;;;;5048479;28;20135;-57
2022/05/31 08:59:28;;;;;;;3.60;0.60;;;;;;;;;;5044228;28;20070;-55
2022/05/31 09:01:57;;;;;;;3.20;0.77;;;;;;;;;;5047910;28;20090;-56
2022/05/31 09:04:25;;;;;;;1.85;0.73;;;;;;;;;;5055950;28;20169;-55
2022/05/31 09:06:54;;;;;;;4.40;0.80;;;;;;;;;;5051218;28;20488;-56
2022/05/31 09:09:24;;;;;;;1.42;0.73;;;;;;;;;;5051006;28;20156;-56
2022/05/31 09:12:00;;;;;;;1.20;0.65;;;;;;;;;;5041188;28;20056;-56
2022/05/31 09:14:40;;;;;;;2.53;0.80;;;;;;;;;;5048083;28;20082;-57
2022/05/31 09:17:19;;;;;;;1.98;0.70;;;;;;;;;;5044750;28;20539;-56
2022/05/31 09:19:48;;;;;;;3.33;0.80;;;;;;;;;;5036798;28;20029;-55
2022/05/31 09:22:15;;;;;;;1.63;0.77;;;;;;;;;;5050885;28;20021;-57
2022/05/31 09:24:42;;;;;;;0.63;0.50;;;;;;;;;;5044745;28;20115;-56
2022/05/31 09:27:11;;;;;;;7.88;1.25;;;;;;;;;;5050910;28;20116;-56
2022/05/31 09:29:44;;;;;;;1.27;0.68;;;;;;;;;;5043756;28;20539;-55
2022/05/31 09:32:10;;;;;;;;;;;;;;;;;;5051048;28;20107;-56
2022/05/31 09:34:55;;;;;;;3.72;0.70;;;;;;;;;;5047267;28;19984;-56
2022/05/31 09:37:24;;;;;;;2.58;0.73;;;;;;;;;;5050897;28;20025;-56
2022/05/31 09:39:50;;;;;;;4.35;0.80;;;;;;;;;;5046429;28;20033;-57
2022/05/31 09:42:19;;;;;;;1.27;0.70;;;;;;;;;;5047432;28;20033;-56
2022/05/31 09:44:48;;;;;;;1.55;0.50;;;;;;;;;;5043436;28;20107;-57
2022/05/31 09:47:25;;;;;;;1.55;0.73;;;;;;;;;;5043616;28;20086;-56
2022/05/31 09:49:52;;;;;;;2.85;0.95;;;;;;;;;;5050284;28;20506;-55
2022/05/31 09:52:21;;;;;;;3.42;1.23;;;;;;;;;;5047022;28;20013;-55
2022/05/31 09:57:54;;;;;;;2.28;0.73;;;;;;;;;;5045297;28;20036;-56
2022/05/31 10:00:21;;;;;;;1.90;0.70;;;;;;;;;;5050080;28;20021;-56
2022/05/31 10:03:05;;;;;;;2.25;0.80;;;;;;;;;;5042934;28;20029;-57
2022/05/31 10:05:31;;;;;;;3.00;0.73;;;;;;;;;;5050122;28;20037;-55
2022/05/31 10:07:57;;;;;;;2.28;0.73;;;;;;;;;;5050468;28;20412;-56
2022/05/31 10:10:25;;;;;;;2.17;0.70;;;;;;;;;;5049967;28;20099;-55
2022/05/31 10:12:59;;;;;;;4.53;0.85;;;;;;;;;;5048760;28;20029;-57
2022/05/31 10:15:41;;;;;;;1.02;0.50;;;;;;;;;;5046127;28;20056;-56
2022/05/31 10:18:08;;;;;;;2.25;0.85;;;;;;;;;;5037609;28;20029;-57
2022/05/31 10:20:34;;;;;;;2.63;0.75;;;;;;;;;;5047000;28;20032;-56
2022/05/31 10:23:12;;;;;;;1.17;0.68;;;;;;;;;;5050479;28;20392;-56
2022/05/31 10:25:42;;;;;;;4.63;0.80;;;;;;;;;;5043736;28;20047;-57
2022/05/31 10:28:15;;;;;;;2.40;0.80;;;;;;;;;;5050419;28;20360;-57
2022/05/31 10:30:41;;;;;;;1.65;0.60;;;;;;;;;;5049442;28;20041;-55
2022/05/31 10:33:10;;;;;;;2.47;0.60;;;;;;;;;;5050623;28;20055;-56
2022/05/31 10:35:38;;;;;;;1.75;0.60;;;;;;;;;;5046257;28;20048;-56
2022/05/31 10:38:04;;;;;;;1.48;0.70;;;;;;;;;;5049617;28;20025;-57
2022/05/31 10:40:40;;;;;;;1.13;0.80;;;;;;;;;;5046559;28;20488;-55
2022/05/31 10:43:25;;;;;;;2.25;0.52;;;;;;;;;;5047668;28;20496;-57
2022/05/31 10:45:51;;;;;;;2.33;0.80;;;;;;;;;;5050035;28;20060;-57
2022/05/31 10:48:17;;;;;;;2.45;0.80;;;;;;;;;;5046480;28;20059;-56
2022/05/31 10:50:54;;;;;;;1.63;0.70;;;;;;;;;;5046025;28;20116;-57
2022/05/31 10:53:30;;;;;;;2.65;0.85;;;;;;;;;;5050141;28;20110;-57
2022/05/31 10:56:03;;;;;;;2.55;0.80;;;;;;;;;;5040742;28;20065;-56
2022/05/31 10:58:42;;;;;;;2.70;0.95;;;;;;;;;;5049967;28;20516;-54
2022/05/31 11:01:27;;;;;;;2.92;1.13;;;;;;;;;;5053556;28;20036;-56
2022/05/31 11:04:11;;;;;;;1.42;0.70;;;;;;;;;;5048527;28;20025;-55
2022/05/31 11:06:57;;;;;;;1.95;0.75;;;;;;;;;;5046964;28;20443;-57
2022/05/31 11:12:44;;;;;;;3.13;0.90;;;;;;;;;;5048722;28;20071;-57
2022/05/31 11:15:29;;;;;;;0.98;0.47;;;;;;;;;;5026768;28;20512;-56
2022/05/31 11:18:00;;;;;;;1.50;0.75;;;;;;;;;;5049127;28;20495;-54
2022/05/31 11:20:43;;;;;;;1.85;0.95;;;;;;;;;;5052934;28;20028;-56
2022/05/31 11:23:16;;;;;;;2.70;1.00;;;;;;;;;;5052325;28;20025;-57
2022/05/31 11:25:52;;;;;;;4.63;0.70;;;;;;;;;;5051463;28;20427;-56
2022/05/31 11:28:32;;;;;;;4.28;0.63;;;;;;;;;;5041326;28;20377;-56
2022/05/31 11:31:14;;;;;;;3.92;0.90;;;;;;;;;;5038991;28;20032;-56
2022/05/31 11:33:57;;;;;;;5.07;1.10;;;;;;;;;;5040475;28;20480;-57
2022/05/31 11:36:29;;;;;;;3.22;0.98;;;;;;;;;;5045690;28;20025;-56
2022/05/31 11:39:15;;;;;;;2.53;0.80;;;;;;;;;;5044300;28;20108;-57
2022/05/31 11:41:42;;;;;;;2.42;0.93;;;;;;;;;;5050164;28;20033;-56
2022/05/31 11:44:32;;;;;;;1.65;0.70;;;;;;;;;;5047926;28;20033;-57
2022/05/31 11:47:24;;;;;;;2.47;0.63;;;;;;;;;;5032389;28;20043;-57
2022/05/31 11:50:02;;;;;;;1.92;0.68;;;;;;;;;;5003630;28;20059;-56
2022/05/31 11:52:31;;;;;;;1.67;0.50;;;;;;;;;;5039073;28;20476;-57
2022/05/31 11:55:30;;;;;;;3.38;1.15;;;;;;;;;;5036550;28;20053;-57
2022/05/31 11:58:01;;;;;;;1.13;0.60;;;;;;;;;;4994270;28;20446;-56
2022/05/31 12:00:28;;;;;;;4.82;0.95;;;;;;;;;;5046168;28;20531;-57
2022/05/31 12:02:57;;;;;;;2.20;0.60;;;;;;;;;;5043545;28;20034;-56
2022/05/31 12:05:23;;;;;;;3.95;0.90;;;;;;;;;;5048345;28;20065;-55
2022/05/31 12:07:51;;;;;;;1.00;0.38;;;;;;;;;;5050918;28;20055;-56
2022/05/31 12:10:26;;;;;;;1.23;0.57;;;;;;;;;;5037917;28;20033;-56
2022/05/31 12:12:53;;;;;;;1.63;0.80;;;;;;;;;;5053681;28;20028;-56
2022/05/31 12:15:22;;;;;;;2.03;0.85;;;;;;;;;;5032277;28;20018;-57
2022/05/31 12:17:52;;;;;;;3.40;0.60;;;;;;;;;;5039998;28;20148;-57
2022/05/31 12:20:29;;;;;;;1.98;0.80;;;;;;;;;;5046601;28;20036;-56
2022/05/31 12:23:01;;;;;;;2.60;0.57;;;;;;;;;;5047238;28;20025;-57
2022/05/31 12:25:30;;;;;;;0.98;0.57;;;;;;;;;;5050446;28;20025;-57
2022/05/31 12:28:05;;;;;;;1.67;0.80;;;;;;;;;;5052332;28;20128;-57
2022/05/31 12:30:34;;;;;;;2.17;0.50;;;;;;;;;;5049287;28;20489;-57
2022/05/31 12:33:00;;;;;;;1.75;0.75;;;;;;;;;;5039307;28;20120;-57
2022/05/31 12:35:32;;;;;;;2.75;0.73;;;;;;;;;;5036838;28;20021;-57
2022/05/31 12:38:01;;;;;;;3.42;0.80;;;;;;;;;;5051109;28;20074;-57
2022/05/31 12:40:33;;;;;;;2.30;0.60;;;;;;;;;;5046556;28;20122;-56
2022/05/31 12:43:00;;;;;;;2.25;0.77;;;;;;;;;;5038158;28;20108;-56
2022/05/31 12:45:29;;;;;;;1.80;0.60;;;;;;;;;;5051271;28;20025;-56
2022/05/31 12:48:19;;;;;;;1.10;0.50;;;;;;;;;;5051645;28;20025;-56
2022/05/31 12:50:47;;;;;;;2.55;1.10;;;;;;;;;;5023151;28;20047;-57
2022/05/31 12:53:20;;;;;;;1.75;0.70;;;;;;;;;;5049770;28;20112;-56
2022/05/31 12:55:48;;;;;;;0.73;0.60;;;;;;;;;;5049781;28;20031;-57
2022/05/31 12:58:26;;;;;;;1.38;0.70;;;;;;;;;;5040258;28;20477;-56
2022/05/31 13:00:54;;;;;;;1.50;0.73;;;;;;;;;;5038326;28;20037;-56
2022/05/31 13:03:36;;;;;;;0.90;0.60;;;;;;;;;;5048814;28;20036;-57
2022/05/31 13:06:04;;;;;;;4.70;1.02;;;;;;;;;;5038879;28;20030;-57
2022/05/31 13:08:51;;;;;;;1.35;0.50;;;;;;;;;;5042550;28;20049;-57
2022/05/31 13:19:41;;;;;;;3.50;0.75;;;;;;;;;;5048172;28;20036;-56
2022/05/31 13:22:09;;;;;;;1.40;0.68;;;;;;;;;;5046388;28;20064;-57
2022/05/31 13:24:42;;;;;;;2.97;1.25;;;;;;;;;;5043440;28;20041;-56
2022/05/31 13:27:09;;;;;;;1.20;0.60;;;;;;;;;;5043563;28;20036;-56
2022/05/31 13:29:35;;;;;;;2.50;0.90;;;;;;;;;;5033957;28;20036;-56
2022/05/31 13:32:01;;;;;;;1.65;0.55;;;;;;;;;;5050825;28;20029;-56
2022/05/31 13:34:36;;;;;;;1.50;0.57;;;;;;;;;;5047180;28;20029;-56
2022/05/31 13:37:03;;;;;;;1.45;0.60;;;;;;;;;;5029903;28;20045;-56
2022/05/31 13:39:29;;;;;;;2.58;0.65;;;;;;;;;;5050104;28;20439;-56
2022/05/31 13:41:57;;;;;;;1.08;0.73;;;;;;;;;;5047520;28;20029;-55
2022/05/31 13:44:26;;;;;;;1.23;0.80;;;;;;;;;;5036828;28;20090;-55
2022/05/31 13:46:53;;;;;;;1.80;0.75;;;;;;;;;;5050603;28;20035;-57
2022/05/31 13:49:38;;;;;;;3.15;0.63;;;;;;;;;;5050786;28;20025;-57
2022/05/31 13:52:06;;;;;;;2.80;0.77;;;;;;;;;;5033696;28;20089;-54
2022/05/31 13:54:39;;;;;;;1.08;0.60;;;;;;;;;;5050948;28;20056;-55
2022/05/31 13:57:05;;;;;;;;;;;;;;;;;;5049192;28;20100;-56
2022/05/31 13:59:33;;;;;;;1.27;0.60;;;;;;;;;;5044365;28;19995;-56
2022/05/31 14:01:59;;;;;;;3.22;0.80;;;;;;;;;;5043351;28;20563;-55
2022/05/31 14:04:31;;;;;;;1.90;0.68;;;;;;;;;;5036533;28;20081;-55
2022/05/31 14:06:58;;;;;;;2.60;0.70;;;;;;;;;;5045533;28;20740;-56
2022/05/31 14:09:28;;;;;;;8.68;0.80;;;;;;;;;;5039044;28;20041;-56
2022/05/31 14:11:57;;;;;;;2.00;0.70;;;;;;;;;;5043162;28;20559;-56
2022/05/31 14:14:46;;;;;;;2.17;0.80;;;;;;;;;;5025864;28;20481;-57
2022/05/31 14:17:14;;;;;;;1.83;0.73;;;;;;;;;;5040830;28;20060;-56
2022/05/31 14:19:44;;;;;;;3.70;0.77;;;;;;;;;;5031547;28;20033;-55
2022/05/31 14:22:27;;;;;;;3.00;0.93;;;;;;;;;;5050484;28;20393;-56
2022/05/31 14:24:54;;;;;;;2.15;0.80;;;;;;;;;;5046528;28;20191;-55
2022/05/31 14:27:21;;;;;;;2.00;1.15;;;;;;;;;;5036088;28;20037;-55
2022/05/31 14:30:06;;;;;;;1.00;0.52;;;;;;;;;;5046566;28;20040;-55
2022/05/31 14:32:33;;;;;;;2.42;0.60;;;;;;;;;;5040589;28;20033;-57
2022/05/31 14:35:00;;;;;;;2.88;0.52;;;;;;;;;;5040042;28;20028;-57
2022/05/31 14:37:29;;;;;;;0.82;0.55;;;;;;;;;;5039912;28;20105;-57
2022/05/31 14:40:03;;;;;;;1.48;0.57;;;;;;;;;;5039857;28;20475;-56
2022/05/31 14:42:33;;;;;;;1.60;0.57;;;;;;;;;;5036414;28;20717;-57
2022/05/31 14:45:01;;;;;;;0.88;0.60;;;;;;;;;;5029336;28;20040;-55
2022/05/31 14:47:30;;;;;;;3.58;0.50;;;;;;;;;;5036034;28;20017;-56
2022/05/31 14:50:02;;;;;;;1.88;0.80;;;;;;;;;;5044186;28;20525;-55
2022/05/31 14:52:28;;;;;;;2.35;0.40;;;;;;;;;;5032456;28;20036;-56
2022/05/31 14:55:05;;;;;;;1.15;0.60;;;;;;;;;;5037061;28;20457;-57
2022/05/31 14:58:37;;;;;;;1.13;0.63;;;;;;;;;;5038963;28;20021;-54
2022/05/31 15:00:17;;;;;;;2.47;0.43;;;;;;;;;;5036702;28;20048;-56
2022/05/31 15:02:44;;;;;;;1.45;0.60;;;;;;;;;;5045270;28;20082;-57
2022/05/31 15:05:10;;;;;;;1.88;0.80;;;;;;;;;;5044338;28;20041;-56
2022/05/31 15:07:51;;;;;;;1.02;0.50;;;;;;;;;;5041311;28;20817;-57
2022/05/31 15:10:31;;;;;;;2.15;0.70;;;;;;;;;;5045745;28;20124;-57
2022/05/31 15:21:13;;;;;;;1.25;0.70;;;;;;;;;;5048211;28;20387;-55
2022/05/31 15:23:39;;;;;;;2.95;1.00;;;;;;;;;;5022856;28;20033;-56
2022/05/31 15:26:06;;;;;;;0.63;0.50;;;;;;;;;;5048325;28;20068;-55
2022/05/31 15:28:32;;;;;;;1.30;0.80;;;;;;;;;;5034384;28;20045;-55
2022/05/31 15:31:02;;;;;;;1.45;0.50;;;;;;;;;;5027551;28;20045;-56
2022/05/31 15:33:28;;;;;;;0.82;0.70;;;;;;;;;;5033328;28;20029;-55